Aplicació Alertes

Dades de l'estació automàtica Pantà de Siurana

?
?
Resum diari 22:30 TU
Dades diàries de l'estació meteorològica
Temperatura mitjana 3.0 °C
Temperatura màxima 10.2 °C 12:44 TU
Temperatura mínima -2.7 °C 7:18 TU
Humitat relativa mitjana 72%
Precipitació acumulada 0.0 mm
Ratxa màxima del vent (10 m) 31.7 km/h - 247º 13:36 TU
Pressió atmosfèrica mitjana 1028.3 hPa
Irradiació solar global 9.2 MJ/m2

El tram horari està expressat en Temps Universal (TU). Cal sumar una hora en horari d'hivern i dues en horari d'estiu per passar a l'hora oficial.

Pantà de Siurana

Metadades estació meteorol´gica
Municipi Cornudella de Montsant
Comarca Priorat
Altitud 500 m
Data alta 08.11.2010
Estat actual Operativa
Dades de període
Període
TU
TM
°C
TX
°C
TN
°C
HRM
%
PPT
mm
VVM (10 m)
km/h
DVM (10 m)
graus
VVX (10 m)
km/h
PM
hPa
RS
W/m2
00:00 - 00:30 1.6 1.8 1.2 80 0.0 2.2 286 7.9 1025.3 0
00:30 - 01:00 0.9 1.3 0.4 82 0.0 4.3 239 11.2 1025.7 0
01:00 - 01:30 0.6 0.8 0.4 85 0.0 4.0 258 10.8 1026.0 0
01:30 - 02:00 0.3 0.7 0.2 86 0.0 2.2 318 6.1 1026.3 0
02:00 - 02:30 0.2 0.6 0.0 87 0.0 4.3 288 9.0 1026.4 0
02:30 - 03:00 0.8 0.9 0.6 86 0.0 5.0 258 11.5 1026.3 0
03:00 - 03:30 0.9 0.9 0.8 85 0.0 7.2 250 15.5 1026.2 0
03:30 - 04:00 0.7 0.8 0.5 85 0.0 9.7 241 17.6 1026.3 0
04:00 - 04:30 -0.2 0.5 -0.9 86 0.0 5.4 349 12.2 1026.6 0
04:30 - 05:00 -0.8 -0.5 -1.2 89 0.0 3.6 313 7.2 1027.2 0
05:00 - 05:30 -1.5 -1.1 -1.9 90 0.0 2.9 342 7.6 1027.7 0
05:30 - 06:00 -2.0 -1.7 -2.4 91 0.0 6.8 31 11.9 1028.1 0
06:00 - 06:30 -1.4 -1.1 -1.7 91 0.0 2.5 9 6.8 1028.1 0
06:30 - 07:00 -1.5 -1.3 -2.0 89 0.0 4.0 314 13.7 1028.4 0
07:00 - 07:30 -2.3 -2.0 -2.7 90 0.0 6.8 47 10.8 1029.2 2
07:30 - 08:00 -2.0 -1.7 -2.2 90 0.0 2.5 76 6.8 1029.3 15
08:00 - 08:30 -2.0 -1.6 -2.4 90 0.0 5.8 57 8.6 1029.6 113
08:30 - 09:00 -0.7 0.1 -1.6 88 0.0 4.0 57 7.2 1029.6 233
09:00 - 09:30 1.0 2.8 -0.2 84 0.0 4.7 143 10.1 1029.6 293
09:30 - 10:00 3.5 4.9 2.9 75 0.0 6.1 202 15.5 1029.6 358
10:00 - 10:30 5.9 6.9 5.0 66 0.0 9.0 220 19.4 1029.3 389
10:30 - 11:00 7.2 7.5 6.9 59 0.0 12.6 207 23.8 1029.1 421
11:00 - 11:30 7.9 8.4 7.6 54 0.0 12.6 207 23.8 1028.7 447
11:30 - 12:00 8.9 9.3 8.4 49 0.0 14.4 213 23.0 1028.2 458
12:00 - 12:30 9.4 10.0 8.8 46 0.0 14.8 210 25.9 1027.5 454
12:30 - 13:00 9.9 10.2 9.6 44 0.0 16.9 218 31.0 1027.1 436
13:00 - 13:30 9.8 10.2 9.4 44 0.0 18.0 219 30.6 1026.8 403
13:30 - 14:00 9.6 10.2 9.2 43 0.0 17.3 231 31.7 1026.5 359
14:00 - 14:30 9.8 10.1 9.6 42 0.0 16.6 228 28.8 1026.6 303
14:30 - 15:00 9.7 9.9 9.5 44 0.0 14.8 217 23.8 1026.6 230
15:00 - 15:30 9.4 9.8 9.0 42 0.0 9.0 233 18.0 1026.9 165
15:30 - 16:00 8.1 8.9 7.3 42 0.0 10.1 235 20.2 1027.6 85
16:00 - 16:30 6.6 7.2 5.8 47 0.0 5.8 238 12.6 1028.0 19
16:30 - 17:00 5.1 5.7 4.5 53 0.0 4.0 219 10.8 1028.6 0
17:00 - 17:30 4.0 4.5 3.2 59 0.0 5.0 51 6.8 1028.9 0
17:30 - 18:00 3.1 3.5 2.8 63 0.0 6.8 34 8.6 1029.3 0
18:00 - 18:30 2.5 2.9 2.1 65 0.0 7.2 38 10.4 1029.5 0
18:30 - 19:00 1.9 2.3 1.7 69 0.0 5.4 42 9.0 1030.1 0
19:00 - 19:30 1.5 1.9 1.1 73 0.0 5.0 52 7.9 1030.4 0
19:30 - 20:00 1.9 2.0 1.7 75 0.0 4.3 56 7.6 1030.6 0
20:00 - 20:30 1.2 1.7 1.1 78 0.0 6.5 37 9.0 1031.1 0
20:30 - 21:00 1.5 1.7 1.1 80 0.0 6.8 47 10.4 1030.9 0
21:00 - 21:30 1.2 1.7 1.0 81 0.0 7.2 40 11.2 1030.7 0
21:30 - 22:00 1.7 2.2 1.2 81 0.0 2.9 84 6.8 1030.7 0
22:00 - 22:30 1.4 1.5 1.2 81 0.0 4.3 38 8.3 1031.0 0
22:30 - 23:00 1.9 2.4 1.2 80 0.0 4.0 23 6.8 1031.3 0

Les dades en taronja només han passat un control de qualitat automàtic. Resta pendent la seva validació definitiva.